Charles J Cenac — WDC2762 — position and weather

sailwx.info

Track history (hours):
 
Tides and Currents Weather Stations Pressure Air Temp Water Temp Dewpoint Dewpoint Depression Visibility Wind Speed Wind Dir Waves Ship Positions

Charles J Cenac

Owner: BC Towing, Inc., Houma, LA. More information available from US FCC via Universal Licensing System and Coast Guard Vessel Documentation Center.

Last reported at 2018-Jun-21 16:30 UTC. Time now 2018-Jun-21 16:28 UTC.
Position N 29°37' W 090°42'.

Length 20 m; draft 8 m.

Type: Towing. MMSI: 366997390.

Date/timePositionNaut miles runAvg speedWind from/ knotsBaromVisibWave heightAir tempDewpointWater temp
2018-Jun-21 16:30N 29°37' W 090°42'3 5.5
2018-Jun-21 16:00N 29°34' W 090°43'1 1.2
2018-Jun-21 15:30N 29°34' W 090°42'0 0.8
2018-Jun-21 15:00N 29°34' W 090°43'0 0.3
2018-Jun-21 14:29N 29°34' W 090°43'1 1.5
2018-Jun-21 14:00N 29°34' W 090°42'0 0.4
2018-Jun-21 13:30N 29°34' W 090°42'0 0.0
2018-Jun-21 13:00N 29°34' W 090°42'0 0.0
2018-Jun-21 12:30N 29°34' W 090°42'0 0.1
2018-Jun-21 12:00N 29°34' W 090°42'0 0.4
2018-Jun-21 11:30N 29°34' W 090°42'1 1.4
2018-Jun-21 10:53N 29°34' W 090°43'0 0.0
2018-Jun-21 10:30N 29°34' W 090°43'0 0.0
2018-Jun-21 09:59N 29°34' W 090°43'0 0.0
2018-Jun-21 09:30N 29°34' W 090°43'0 0.0
2018-Jun-21 08:58N 29°34' W 090°43'0 0.0
2018-Jun-21 08:30N 29°34' W 090°43'0 0.0
2018-Jun-21 07:59N 29°34' W 090°43'0 0.0
2018-Jun-21 07:30N 29°34' W 090°43'0 0.0
2018-Jun-21 06:59N 29°34' W 090°43'0 0.0
2018-Jun-21 06:30N 29°34' W 090°43'0 0.0
2018-Jun-21 06:00N 29°34' W 090°43'0 0.0
2018-Jun-21 05:29N 29°34' W 090°43'0 0.0
2018-Jun-21 04:59N 29°34' W 090°43'0 0.0
2018-Jun-21 04:30N 29°34' W 090°43'0 0.0
2018-Jun-21 03:55N 29°34' W 090°43'0 0.0
2018-Jun-21 03:30N 29°34' W 090°43'0 0.0
2018-Jun-21 02:57N 29°34' W 090°43'0 0.0
2018-Jun-21 02:29N 29°34' W 090°43'0 0.0
2018-Jun-21 02:00N 29°34' W 090°43'0 0.0
2018-Jun-21 01:30N 29°34' W 090°43'0 0.0
2018-Jun-21 01:00N 29°34' W 090°43'0 0.0
2018-Jun-21 00:30N 29°34' W 090°43'0 0.0
2018-Jun-20 23:59N 29°34' W 090°43'0 0.0
2018-Jun-20 23:30N 29°34' W 090°43'0 0.0
2018-Jun-20 23:00N 29°34' W 090°43'0 0.1
2018-Jun-20 22:30N 29°34' W 090°43'2 3.2
2018-Jun-20 22:00N 29°33' W 090°42'1 1.8
2018-Jun-20 21:30N 29°34' W 090°42'1 1.8
2018-Jun-20 21:00N 29°33' W 090°42'0 0.0
2018-Jun-20 20:30N 29°33' W 090°42'0 0.0
2018-Jun-20 19:58N 29°33' W 090°42'0 0.2
2018-Jun-20 19:30N 29°33' W 090°42'0 0.4
2018-Jun-20 19:00N 29°32' W 090°42'0 0.5
2018-Jun-20 18:30N 29°33' W 090°42'2 5.0
2018-Jun-20 18:00N 29°35' W 090°43'1 2.9
2018-Jun-20 17:30N 29°36' W 090°42'0 0.0
2018-Jun-20 17:00N 29°36' W 090°42'0 0.0
2018-Jun-20 16:30N 29°36' W 090°42'0 0.0
2018-Jun-20 16:00N 29°36' W 090°42'0 0.0
2018-Jun-20 15:30N 29°36' W 090°42'0 0.1
2018-Jun-20 15:00N 29°36' W 090°43'0 0.3
2018-Jun-20 14:30N 29°37' W 090°42'0 0.0
2018-Jun-20 14:00N 29°37' W 090°42'0 0.4
2018-Jun-20 13:29N 29°36' W 090°42'0 0.0
2018-Jun-20 13:00N 29°36' W 090°42'0 0.0
2018-Jun-20 12:30N 29°36' W 090°42'0 0.2
2018-Jun-20 12:00N 29°36' W 090°43'0 0.0
2018-Jun-20 11:30N 29°36' W 090°43'0 0.0
2018-Jun-20 11:00N 29°36' W 090°43'0 0.0
2018-Jun-20 10:30N 29°36' W 090°43'0 0.0
2018-Jun-20 10:00N 29°36' W 090°43'0 0.0
2018-Jun-20 09:30N 29°36' W 090°43'0 0.0
2018-Jun-20 09:00N 29°36' W 090°43'0 0.0
2018-Jun-20 08:30N 29°36' W 090°43'0 0.0
2018-Jun-20 08:00N 29°36' W 090°43'0 0.0
2018-Jun-20 07:30N 29°36' W 090°43'0 0.0
2018-Jun-20 07:00N 29°36' W 090°43'0 0.0
2018-Jun-20 06:30N 29°36' W 090°43'0 0.0
2018-Jun-20 06:00N 29°36' W 090°43'0 0.0
2018-Jun-20 05:30N 29°36' W 090°43'0 0.0
2018-Jun-20 05:00N 29°36' W 090°43'0 0.0
2018-Jun-20 04:30N 29°36' W 090°43'0 0.0
2018-Jun-20 04:00N 29°36' W 090°43'0 0.0
2018-Jun-20 03:30N 29°36' W 090°43'0 0.0
2018-Jun-20 03:00N 29°36' W 090°43'0 0.0
2018-Jun-20 02:30N 29°36' W 090°43'0 0.0
2018-Jun-20 02:00N 29°36' W 090°43'0 0.2
2018-Jun-20 01:30N 29°36' W 090°42'3 5.8
2018-Jun-20 01:00N 29°34' W 090°43'4 8.0
2018-Jun-20 00:30N 29°30' W 090°43'4 8.1
2018-Jun-20 00:00N 29°26' W 090°43'1 0.1
2018-Jun-19 16:10N 29°24' W 090°44'1 5.9
2018-Jun-19 15:59N 29°26' W 090°43'3 5.9
2018-Jun-19 15:30N 29°28' W 090°43'3 5.5
2018-Jun-19 15:00N 29°31' W 090°42'2 3.4
2018-Jun-19 14:30N 29°33' W 090°42'0 0.0
2018-Jun-19 14:00N 29°33' W 090°42'0 0.1
2018-Jun-19 13:30N 29°33' W 090°42'2 3.2
2018-Jun-19 13:00N 29°34' W 090°43'0 0.0
2018-Jun-19 12:30N 29°34' W 090°43'0 0.0
2018-Jun-19 12:00N 29°34' W 090°43'0 0.0
2018-Jun-19 11:30N 29°34' W 090°43'0 0.0
2018-Jun-19 11:00N 29°34' W 090°43'0 0.0
2018-Jun-19 10:30N 29°34' W 090°43'0 0.0
2018-Jun-19 10:00N 29°34' W 090°43'0 0.0
2018-Jun-19 09:30N 29°34' W 090°43'0 0.0
2018-Jun-19 09:00N 29°34' W 090°43'1 1.2
2018-Jun-19 08:30N 29°34' W 090°42'4 7.2
2018-Jun-19 08:00N 29°30' W 090°43'4 7.5
2018-Jun-19 07:30N 29°26' W 090°43'4 7.5
2018-Jun-19 07:00N 29°23' W 090°44'2 0.3
2018-Jun-18 22:40N 29°25' W 090°44'1 9.1
2018-Jun-18 22:30N 29°26' W 090°43'4 9.1
2018-Jun-18 22:00N 29°31' W 090°43'3 6.9
2018-Jun-18 21:30N 29°34' W 090°43'0 0.2
2018-Jun-18 21:00N 29°34' W 090°43'1 1.3
2018-Jun-18 20:30N 29°34' W 090°42'2 3.5
2018-Jun-18 20:00N 29°35' W 090°43'2 4.4
2018-Jun-18 19:30N 29°36' W 090°40'4 7.0
2018-Jun-18 19:00N 29°35' W 090°37'4 7.2
2018-Jun-18 18:30N 29°34' W 090°33'4 7.4
2018-Jun-18 17:59N 29°34' W 090°28'186 6.1
2018-Jun-17 11:12N 30°20' W 086°60'2 8.2
2018-Jun-17 11:00N 30°20' W 086°58'4 8.2
2018-Jun-17 10:30N 30°21' W 086°53'4 8.6
2018-Jun-17 10:00N 30°21' W 086°48'4 8.6
2018-Jun-17 09:30N 30°21' W 086°43'5 8.4
2018-Jun-17 08:53N 30°21' W 086°37'7 8.3
2018-Jun-17 08:00N 30°21' W 086°29'  
2018-Jun-12 20:07N 25°31' W 080°06'1 7.6
2018-Jun-12 20:00N 25°32' W 080°05'4 7.6
2018-Jun-12 19:30N 25°36' W 080°05'4 7.3
2018-Jun-12 19:00N 25°39' W 080°05'4 7.2
2018-Jun-12 18:30N 25°43' W 080°05'4 8.0
2018-Jun-12 18:00N 25°47' W 080°06'4 7.6
2018-Jun-12 17:30N 25°51' W 080°06'4 7.3
2018-Jun-12 16:59N 25°54' W 080°05'4 8.0
2018-Jun-12 16:30N 25°58' W 080°05'5 9.4
2018-Jun-12 16:00N 26°03' W 080°04'5 9.3
2018-Jun-12 15:30N 26°07' W 080°04'4 8.6
2018-Jun-12 15:00N 26°12' W 080°04'4 8.2
2018-Jun-12 14:29N 26°16' W 080°04'4 8.1
2018-Jun-12 14:00N 26°20' W 080°03'4 8.3
2018-Jun-12 13:30N 26°24' W 080°03'4 8.1
2018-Jun-12 12:58N 26°28' W 080°03'18 1.1
2018-Jun-11 20:14N 26°46' W 080°03'1 5.7
2018-Jun-11 20:00N 26°46' W 080°02'4 6.4
2018-Jun-11 19:24N 26°50' W 080°01'3 6.6
2018-Jun-11 19:00N 26°53' W 080°02'3 6.5
2018-Jun-11 18:30N 26°56' W 080°03'3 6.7
2018-Jun-11 18:00N 26°59' W 080°04'  
Track history (hours):
 
Tides and Currents Weather Stations Pressure Air Temp Water Temp Dewpoint Dewpoint Depression Visibility Wind Speed Wind Dir Waves Ship Positions

Charles J Cenac

Owner: BC Towing, Inc., Houma, LA. More information available from US FCC via Universal Licensing System and Coast Guard Vessel Documentation Center.

Last reported at 2018-Jun-21 16:30 UTC. Time now 2018-Jun-21 16:28 UTC.
Position N 29°37' W 090°42'.

Length 20 m; draft 8 m.

Type: Towing. MMSI: 366997390.

Date/timePositionNaut miles runAvg speedWind from/ knotsBaromVisibWave heightAir tempDewpointWater temp
2018-Jun-21 16:30N 29°37' W 090°42'3 5.5
2018-Jun-21 16:00N 29°34' W 090°43'1 1.2
2018-Jun-21 15:30N 29°34' W 090°42'0 0.8
2018-Jun-21 15:00N 29°34' W 090°43'0 0.3
2018-Jun-21 14:29N 29°34' W 090°43'1 1.5
2018-Jun-21 14:00N 29°34' W 090°42'0 0.4
2018-Jun-21 13:30N 29°34' W 090°42'0 0.0
2018-Jun-21 13:00N 29°34' W 090°42'0 0.0
2018-Jun-21 12:30N 29°34' W 090°42'0 0.1
2018-Jun-21 12:00N 29°34' W 090°42'0 0.4
2018-Jun-21 11:30N 29°34' W 090°42'1 1.4
2018-Jun-21 10:53N 29°34' W 090°43'0 0.0
2018-Jun-21 10:30N 29°34' W 090°43'0 0.0
2018-Jun-21 09:59N 29°34' W 090°43'0 0.0
2018-Jun-21 09:30N 29°34' W 090°43'0 0.0
2018-Jun-21 08:58N 29°34' W 090°43'0 0.0
2018-Jun-21 08:30N 29°34' W 090°43'0 0.0
2018-Jun-21 07:59N 29°34' W 090°43'0 0.0
2018-Jun-21 07:30N 29°34' W 090°43'0 0.0
2018-Jun-21 06:59N 29°34' W 090°43'0 0.0
2018-Jun-21 06:30N 29°34' W 090°43'0 0.0
2018-Jun-21 06:00N 29°34' W 090°43'0 0.0
2018-Jun-21 05:29N 29°34' W 090°43'0 0.0
2018-Jun-21 04:59N 29°34' W 090°43'0 0.0
2018-Jun-21 04:30N 29°34' W 090°43'0 0.0
2018-Jun-21 03:55N 29°34' W 090°43'0 0.0
2018-Jun-21 03:30N 29°34' W 090°43'0 0.0
2018-Jun-21 02:57N 29°34' W 090°43'0 0.0
2018-Jun-21 02:29N 29°34' W 090°43'0 0.0
2018-Jun-21 02:00N 29°34' W 090°43'0 0.0
2018-Jun-21 01:30N 29°34' W 090°43'0 0.0
2018-Jun-21 01:00N 29°34' W 090°43'0 0.0
2018-Jun-21 00:30N 29°34' W 090°43'0 0.0
2018-Jun-20 23:59N 29°34' W 090°43'0 0.0
2018-Jun-20 23:30N 29°34' W 090°43'0 0.0
2018-Jun-20 23:00N 29°34' W 090°43'0 0.1
2018-Jun-20 22:30N 29°34' W 090°43'2 3.2
2018-Jun-20 22:00N 29°33' W 090°42'1 1.8
2018-Jun-20 21:30N 29°34' W 090°42'1 1.8
2018-Jun-20 21:00N 29°33' W 090°42'0 0.0
2018-Jun-20 20:30N 29°33' W 090°42'0 0.0
2018-Jun-20 19:58N 29°33' W 090°42'0 0.2
2018-Jun-20 19:30N 29°33' W 090°42'0 0.4
2018-Jun-20 19:00N 29°32' W 090°42'0 0.5
2018-Jun-20 18:30N 29°33' W 090°42'2 5.0
2018-Jun-20 18:00N 29°35' W 090°43'1 2.9
2018-Jun-20 17:30N 29°36' W 090°42'0 0.0
2018-Jun-20 17:00N 29°36' W 090°42'0 0.0
2018-Jun-20 16:30N 29°36' W 090°42'0 0.0
2018-Jun-20 16:00N 29°36' W 090°42'0 0.0
2018-Jun-20 15:30N 29°36' W 090°42'0 0.1
2018-Jun-20 15:00N 29°36' W 090°43'0 0.3
2018-Jun-20 14:30N 29°37' W 090°42'0 0.0
2018-Jun-20 14:00N 29°37' W 090°42'0 0.4
2018-Jun-20 13:29N 29°36' W 090°42'0 0.0
2018-Jun-20 13:00N 29°36' W 090°42'0 0.0
2018-Jun-20 12:30N 29°36' W 090°42'0 0.2
2018-Jun-20 12:00N 29°36' W 090°43'0 0.0
2018-Jun-20 11:30N 29°36' W 090°43'0 0.0
2018-Jun-20 11:00N 29°36' W 090°43'0 0.0
2018-Jun-20 10:30N 29°36' W 090°43'0 0.0
2018-Jun-20 10:00N 29°36' W 090°43'0 0.0
2018-Jun-20 09:30N 29°36' W 090°43'0 0.0
2018-Jun-20 09:00N 29°36' W 090°43'0 0.0
2018-Jun-20 08:30N 29°36' W 090°43'0 0.0
2018-Jun-20 08:00N 29°36' W 090°43'0 0.0
2018-Jun-20 07:30N 29°36' W 090°43'0 0.0
2018-Jun-20 07:00N 29°36' W 090°43'0 0.0
2018-Jun-20 06:30N 29°36' W 090°43'0 0.0
2018-Jun-20 06:00N 29°36' W 090°43'0 0.0
2018-Jun-20 05:30N 29°36' W 090°43'0 0.0
2018-Jun-20 05:00N 29°36' W 090°43'0 0.0
2018-Jun-20 04:30N 29°36' W 090°43'0 0.0
2018-Jun-20 04:00N 29°36' W 090°43'0 0.0
2018-Jun-20 03:30N 29°36' W 090°43'0 0.0
2018-Jun-20 03:00N 29°36' W 090°43'0 0.0
2018-Jun-20 02:30N 29°36' W 090°43'0 0.0
2018-Jun-20 02:00N 29°36' W 090°43'0 0.2
2018-Jun-20 01:30N 29°36' W 090°42'3 5.8
2018-Jun-20 01:00N 29°34' W 090°43'4 8.0
2018-Jun-20 00:30N 29°30' W 090°43'4 8.1
2018-Jun-20 00:00N 29°26' W 090°43'1 0.1
2018-Jun-19 16:10N 29°24' W 090°44'1 5.9
2018-Jun-19 15:59N 29°26' W 090°43'3 5.9
2018-Jun-19 15:30N 29°28' W 090°43'3 5.5
2018-Jun-19 15:00N 29°31' W 090°42'2 3.4
2018-Jun-19 14:30N 29°33' W 090°42'0 0.0
2018-Jun-19 14:00N 29°33' W 090°42'0 0.1
2018-Jun-19 13:30N 29°33' W 090°42'2 3.2
2018-Jun-19 13:00N 29°34' W 090°43'0 0.0
2018-Jun-19 12:30N 29°34' W 090°43'0 0.0
2018-Jun-19 12:00N 29°34' W 090°43'0 0.0
2018-Jun-19 11:30N 29°34' W 090°43'0 0.0
2018-Jun-19 11:00N 29°34' W 090°43'0 0.0
2018-Jun-19 10:30N 29°34' W 090°43'0 0.0
2018-Jun-19 10:00N 29°34' W 090°43'0 0.0
2018-Jun-19 09:30N 29°34' W 090°43'0 0.0
2018-Jun-19 09:00N 29°34' W 090°43'1 1.2
2018-Jun-19 08:30N 29°34' W 090°42'4 7.2
2018-Jun-19 08:00N 29°30' W 090°43'4 7.5
2018-Jun-19 07:30N 29°26' W 090°43'4 7.5
2018-Jun-19 07:00N 29°23' W 090°44'2 0.3
2018-Jun-18 22:40N 29°25' W 090°44'1 9.1
2018-Jun-18 22:30N 29°26' W 090°43'4 9.1
2018-Jun-18 22:00N 29°31' W 090°43'3 6.9
2018-Jun-18 21:30N 29°34' W 090°43'0 0.2
2018-Jun-18 21:00N 29°34' W 090°43'1 1.3
2018-Jun-18 20:30N 29°34' W 090°42'2 3.5
2018-Jun-18 20:00N 29°35' W 090°43'2 4.4
2018-Jun-18 19:30N 29°36' W 090°40'4 7.0
2018-Jun-18 19:00N 29°35' W 090°37'4 7.2
2018-Jun-18 18:30N 29°34' W 090°33'4 7.4
2018-Jun-18 17:59N 29°34' W 090°28'186 6.1
2018-Jun-17 11:12N 30°20' W 086°60'2 8.2
2018-Jun-17 11:00N 30°20' W 086°58'4 8.2
2018-Jun-17 10:30N 30°21' W 086°53'4 8.6
2018-Jun-17 10:00N 30°21' W 086°48'4 8.6
2018-Jun-17 09:30N 30°21' W 086°43'5 8.4
2018-Jun-17 08:53N 30°21' W 086°37'7 8.3
2018-Jun-17 08:00N 30°21' W 086°29'  
2018-Jun-12 20:07N 25°31' W 080°06'1 7.6
2018-Jun-12 20:00N 25°32' W 080°05'4 7.6
2018-Jun-12 19:30N 25°36' W 080°05'4 7.3
2018-Jun-12 19:00N 25°39' W 080°05'4 7.2
2018-Jun-12 18:30N 25°43' W 080°05'4 8.0
2018-Jun-12 18:00N 25°47' W 080°06'4 7.6
2018-Jun-12 17:30N 25°51' W 080°06'4 7.3
2018-Jun-12 16:59N 25°54' W 080°05'4 8.0
2018-Jun-12 16:30N 25°58' W 080°05'5 9.4
2018-Jun-12 16:00N 26°03' W 080°04'5 9.3
2018-Jun-12 15:30N 26°07' W 080°04'4 8.6
2018-Jun-12 15:00N 26°12' W 080°04'4 8.2
2018-Jun-12 14:29N 26°16' W 080°04'4 8.1
2018-Jun-12 14:00N 26°20' W 080°03'4 8.3
2018-Jun-12 13:30N 26°24' W 080°03'4 8.1
2018-Jun-12 12:58N 26°28' W 080°03'18 1.1
2018-Jun-11 20:14N 26°46' W 080°03'1 5.7
2018-Jun-11 20:00N 26°46' W 080°02'4 6.4
2018-Jun-11 19:24N 26°50' W 080°01'3 6.6
2018-Jun-11 19:00N 26°53' W 080°02'3 6.5
2018-Jun-11 18:30N 26°56' W 080°03'3 6.7
2018-Jun-11 18:00N 26°59' W 080°04'  

Dump ship's entire track history